createdAt,value
2022-09-30T00:00:06.793Z,3.67
2022-09-30T00:01:09.291Z,3.75
2022-09-30T00:02:12.197Z,3.90
2022-09-30T00:03:14.371Z,4.30
2022-09-30T00:04:24.731Z,3.60
2022-09-30T00:05:26.342Z,3.60
2022-09-30T00:06:29.622Z,4.60
2022-09-30T00:07:31.193Z,3.67
2022-09-30T00:08:32.930Z,3.70
2022-09-30T00:09:34.553Z,4.05
2022-09-30T00:10:36.170Z,4.05
2022-09-30T00:11:39.259Z,3.47
2022-09-30T00:12:41.642Z,5.95
2022-09-30T00:13:45.628Z,3.83
2022-09-30T00:14:47.210Z,3.78
2022-09-30T00:15:48.863Z,4.03
2022-09-30T00:16:50.512Z,3.75
2022-09-30T00:17:52.080Z,3.38
2022-09-30T00:18:56.366Z,3.90
2022-09-30T00:19:57.937Z,3.85
2022-09-30T00:20:59.834Z,3.50
2022-09-30T00:22:01.532Z,4.20
2022-09-30T00:23:03.104Z,3.55
2022-09-30T00:24:05.597Z,3.97
2022-09-30T00:25:07.408Z,3.80
2022-09-30T00:26:12.434Z,3.63
2022-09-30T00:27:18.047Z,3.90
2022-09-30T00:28:19.614Z,3.80
2022-09-30T00:29:21.280Z,3.38
2022-09-30T00:30:22.892Z,3.65
2022-09-30T00:31:26.901Z,4.05
2022-09-30T00:32:28.609Z,4.15
2022-09-30T00:33:30.307Z,4.32
2022-09-30T00:34:31.895Z,4.40
2022-09-30T00:35:33.763Z,4.15
2022-09-30T00:36:55.486Z,5.82
2022-09-30T00:37:57.208Z,7.25
2022-09-30T00:38:58.797Z,4.75
2022-09-30T00:40:00.563Z,4.80
2022-09-30T00:41:03.318Z,7.72
2022-09-30T00:42:10.888Z,4.90
2022-09-30T00:43:39.162Z,4.28
2022-09-30T00:44:53.364Z,4.57
2022-09-30T00:45:59.372Z,4.10
2022-09-30T00:47:01.066Z,5.10
2022-09-30T00:48:15.220Z,7.15
2022-09-30T00:49:22.619Z,4.00
2022-09-30T00:50:24.297Z,4.70
2022-09-30T00:51:36.705Z,4.22
2022-09-30T00:52:38.819Z,3.85
2022-09-30T00:53:52.349Z,4.63
2022-09-30T00:54:55.282Z,5.65
2022-09-30T00:56:04.909Z,4.43
2022-09-30T00:57:09.096Z,4.60
2022-09-30T00:58:15.102Z,4.22
2022-09-30T00:59:21.597Z,3.90
2022-09-30T01:00:23.412Z,4.47
2022-09-30T01:01:25.356Z,8.93
2022-09-30T01:02:27.142Z,3.95
2022-09-30T01:03:35.241Z,4.20
2022-09-30T01:04:38.287Z,3.80
2022-09-30T01:05:40.180Z,4.57
2022-09-30T01:06:42.337Z,5.22
2022-09-30T01:07:44.315Z,3.80
2022-09-30T01:08:46.924Z,4.80
2022-09-30T01:09:49.367Z,3.90
2022-09-30T01:10:51.014Z,3.55
2022-09-30T01:11:53.187Z,3.97
2022-09-30T01:12:55.696Z,4.10
2022-09-30T01:14:02.208Z,3.75
2022-09-30T01:15:05.059Z,3.95
2022-09-30T01:16:22.397Z,4.68
2022-09-30T01:17:49.125Z,4.35
2022-09-30T01:19:06.514Z,4.20
2022-09-30T01:20:45.552Z,4.25
2022-09-30T01:22:31.964Z,3.90
2022-09-30T01:24:00.306Z,3.70
2022-09-30T01:25:01.862Z,4.45
2022-09-30T01:26:28.236Z,3.95
2022-09-30T01:27:52.268Z,4.03
2022-09-30T01:29:15.777Z,3.85
2022-09-30T01:30:45.770Z,3.58
2022-09-30T01:32:19.572Z,4.20
2022-09-30T01:33:42.633Z,3.60
2022-09-30T01:35:17.976Z,3.90
2022-09-30T01:36:46.555Z,4.00
2022-09-30T01:38:22.164Z,3.45
2022-09-30T01:39:55.598Z,3.58
2022-09-30T01:41:02.951Z,3.47
2022-09-30T01:42:18.989Z,4.97
2022-09-30T01:43:39.292Z,3.97
2022-09-30T01:45:10.932Z,4.20
2022-09-30T01:46:37.142Z,6.72
2022-09-30T01:47:59.619Z,3.97
2022-09-30T01:49:19.077Z,4.20
2022-09-30T01:50:23.296Z,3.90
2022-09-30T01:51:35.066Z,3.60
2022-09-30T01:52:49.230Z,3.55
2022-09-30T01:53:55.666Z,3.90
2022-09-30T01:55:03.934Z,4.07
2022-09-30T01:56:17.449Z,3.90
2022-09-30T01:57:22.799Z,6.35
2022-09-30T01:58:53.115Z,5.93
2022-09-30T01:59:59.093Z,3.60
2022-09-30T02:01:06.090Z,4.05
2022-09-30T02:02:18.484Z,4.88
2022-09-30T02:03:29.500Z,3.90
2022-09-30T02:04:42.408Z,3.97
2022-09-30T02:05:57.803Z,3.70
2022-09-30T02:07:07.386Z,3.78
2022-09-30T02:08:18.464Z,4.50
2022-09-30T02:09:32.832Z,4.80
2022-09-30T02:10:39.746Z,4.30
2022-09-30T02:11:42.389Z,4.85
2022-09-30T02:12:57.804Z,8.27
2022-09-30T02:14:31.479Z,4.30
2022-09-30T02:15:40.567Z,5.28
2022-09-30T02:16:48.206Z,4.47
2022-09-30T02:18:02.501Z,4.93
2022-09-30T02:19:23.017Z,4.43
2022-09-30T02:20:35.202Z,7.03
2022-09-30T02:21:41.697Z,5.22
2022-09-30T02:22:49.981Z,4.90
2022-09-30T02:23:57.825Z,4.15
2022-09-30T02:25:05.584Z,4.57
2022-09-30T02:26:18.727Z,7.50
2022-09-30T02:27:30.001Z,4.22
2022-09-30T02:28:32.817Z,6.65
2022-09-30T02:29:39.558Z,4.57
2022-09-30T02:30:47.806Z,4.65
2022-09-30T02:31:53.949Z,9.35
2022-09-30T02:33:07.000Z,5.57
2022-09-30T02:34:16.318Z,6.82
2022-09-30T02:35:30.485Z,5.25
2022-09-30T02:37:00.589Z,5.53
2022-09-30T02:38:06.506Z,4.78
2022-09-30T02:39:15.226Z,4.50
2022-09-30T02:40:23.325Z,5.38
2022-09-30T02:41:28.023Z,5.95
2022-09-30T02:42:31.078Z,5.35
2022-09-30T02:43:34.026Z,5.85
2022-09-30T02:44:36.820Z,6.15
2022-09-30T02:46:03.592Z,6.65
2022-09-30T02:47:14.598Z,5.75
2022-09-30T02:48:29.782Z,6.03
2022-09-30T02:49:46.484Z,6.75
2022-09-30T02:51:05.108Z,6.20
2022-09-30T02:52:54.610Z,6.15
2022-09-30T02:54:28.098Z,6.53
2022-09-30T02:55:56.918Z,6.55
2022-09-30T02:57:11.750Z,7.00
2022-09-30T02:58:18.449Z,7.03
2022-09-30T02:59:21.535Z,7.28
2022-09-30T03:00:24.142Z,7.75
2022-09-30T03:01:25.975Z,7.63
2022-09-30T03:02:28.465Z,8.15
2022-09-30T03:03:34.997Z,7.78
2022-09-30T03:04:41.354Z,9.68
2022-09-30T03:05:43.865Z,7.57
2022-09-30T03:06:45.643Z,11.50
2022-09-30T03:07:47.392Z,8.60
2022-09-30T03:08:49.161Z,7.43
2022-09-30T03:09:56.919Z,7.72
2022-09-30T03:10:58.788Z,8.43
2022-09-30T03:12:26.561Z,7.15
2022-09-30T03:14:06.488Z,7.88
2022-09-30T03:15:22.502Z,7.38
2022-09-30T03:16:38.961Z,6.50
2022-09-30T03:18:14.932Z,7.80
2022-09-30T03:19:42.254Z,7.68
2022-09-30T03:20:58.936Z,7.32
2022-09-30T03:22:16.423Z,7.20
2022-09-30T03:23:38.289Z,7.20
2022-09-30T03:25:04.380Z,9.93
2022-09-30T03:26:12.252Z,7.60
2022-09-30T03:27:19.321Z,8.25
2022-09-30T03:28:46.805Z,7.22
2022-09-30T03:30:08.388Z,7.45
2022-09-30T03:31:20.178Z,7.80
2022-09-30T03:32:46.244Z,6.82
2022-09-30T03:34:02.985Z,7.47
2022-09-30T03:35:19.145Z,6.93
2022-09-30T03:36:40.407Z,6.40
2022-09-30T03:38:00.671Z,7.05
2022-09-30T03:39:25.018Z,7.22
2022-09-30T03:40:41.289Z,6.28
2022-09-30T03:42:10.590Z,7.03
2022-09-30T03:43:29.580Z,6.47
2022-09-30T03:44:40.118Z,5.85
2022-09-30T03:46:08.717Z,5.88
2022-09-30T03:47:14.511Z,5.55
2022-09-30T03:48:16.867Z,5.30
2022-09-30T03:49:29.869Z,5.22
2022-09-30T03:50:33.652Z,5.50
2022-09-30T03:51:38.385Z,5.18
2022-09-30T03:52:40.223Z,4.68
2022-09-30T03:53:43.615Z,6.07
2022-09-30T03:54:51.972Z,4.95
2022-09-30T03:55:54.023Z,4.30
2022-09-30T03:56:55.624Z,4.32
2022-09-30T03:57:58.375Z,4.07
2022-09-30T03:59:00.797Z,4.10
2022-09-30T04:00:02.859Z,4.97
2022-09-30T04:01:04.533Z,4.30
2022-09-30T04:02:07.211Z,4.35
2022-09-30T04:03:08.884Z,4.72
2022-09-30T04:04:10.476Z,4.40
2022-09-30T04:05:12.590Z,4.80
2022-09-30T04:06:14.885Z,4.47
2022-09-30T04:07:16.600Z,4.57
2022-09-30T04:08:18.216Z,4.47
2022-09-30T04:09:19.848Z,5.75
2022-09-30T04:10:21.514Z,4.53
2022-09-30T04:11:23.099Z,4.75
2022-09-30T04:12:24.795Z,4.80
2022-09-30T04:13:26.393Z,4.65
2022-09-30T04:14:28.052Z,4.05
2022-09-30T04:15:29.646Z,5.00
2022-09-30T04:16:31.989Z,4.93
2022-09-30T04:17:33.807Z,4.82
2022-09-30T04:18:37.209Z,5.28
2022-09-30T04:19:40.247Z,5.28
2022-09-30T04:20:41.995Z,5.15
2022-09-30T04:21:43.683Z,5.50
2022-09-30T04:22:45.283Z,6.03
2022-09-30T04:23:46.974Z,5.95
2022-09-30T04:24:48.555Z,6.55
2022-09-30T04:25:54.374Z,6.20
2022-09-30T04:26:55.952Z,6.18
2022-09-30T04:27:57.777Z,5.80
2022-09-30T04:28:59.456Z,6.07
2022-09-30T04:30:01.096Z,15.65
2022-09-30T04:31:05.076Z,6.93
2022-09-30T04:32:06.800Z,6.00
2022-09-30T04:33:08.438Z,6.60
2022-09-30T04:34:11.767Z,6.13
2022-09-30T04:35:14.557Z,5.97
2022-09-30T04:36:18.072Z,5.97
2022-09-30T04:37:20.107Z,7.65
2022-09-30T04:38:22.296Z,6.40
2022-09-30T04:39:24.022Z,6.20
2022-09-30T04:40:26.123Z,7.10
2022-09-30T04:41:27.788Z,8.07
2022-09-30T04:42:29.351Z,9.13
2022-09-30T04:43:31.589Z,8.00
2022-09-30T04:44:33.202Z,7.45
2022-09-30T04:45:34.816Z,8.60
2022-09-30T04:46:37.041Z,8.40
2022-09-30T04:47:39.905Z,8.18
2022-09-30T04:48:45.836Z,7.68
2022-09-30T04:49:47.543Z,9.65
2022-09-30T04:50:49.368Z,8.55
2022-09-30T04:51:50.940Z,14.18
2022-09-30T04:52:52.706Z,8.90
2022-09-30T04:53:54.455Z,9.35
2022-09-30T04:54:56.080Z,9.82
2022-09-30T04:56:01.827Z,10.32
2022-09-30T04:57:03.527Z,8.55
2022-09-30T04:58:05.144Z,9.63
2022-09-30T04:59:07.065Z,11.05
2022-09-30T05:00:09.595Z,8.68
2022-09-30T05:01:13.924Z,9.07
2022-09-30T05:02:15.603Z,9.65
2022-09-30T05:03:18.409Z,9.65
2022-09-30T05:04:20.092Z,9.10
2022-09-30T05:05:21.731Z,10.07
2022-09-30T05:06:23.378Z,8.55
2022-09-30T05:07:25.018Z,8.80
2022-09-30T05:08:27.284Z,9.82
2022-09-30T05:09:28.948Z,8.88
2022-09-30T05:10:30.628Z,8.02
2022-09-30T05:11:32.704Z,9.32
2022-09-30T05:12:34.879Z,7.95
2022-09-30T05:13:40.988Z,8.30
2022-09-30T05:14:42.618Z,10.73
2022-09-30T05:15:44.197Z,7.88
2022-09-30T05:16:45.774Z,11.13
2022-09-30T05:17:49.408Z,8.75
2022-09-30T05:18:51.199Z,9.88
2022-09-30T05:19:52.961Z,25.75
2022-09-30T05:20:57.467Z,11.55
2022-09-30T05:21:59.058Z,10.85
2022-09-30T05:23:01.085Z,11.27
2022-09-30T05:24:03.208Z,12.82
2022-09-30T05:25:05.500Z,9.88
2022-09-30T05:26:11.909Z,8.40
2022-09-30T05:27:14.054Z,9.80
2022-09-30T05:28:15.800Z,14.27
2022-09-30T05:29:17.528Z,9.15
2022-09-30T05:30:19.158Z,10.85
2022-09-30T05:31:20.927Z,9.07
2022-09-30T05:32:22.787Z,15.80
2022-09-30T05:33:24.554Z,12.30
2022-09-30T05:34:26.269Z,9.00
2022-09-30T05:35:28.610Z,10.57
2022-09-30T05:36:30.414Z,13.45
2022-09-30T05:37:33.327Z,11.80
2022-09-30T05:38:35.160Z,9.88
2022-09-30T05:39:36.756Z,14.13
2022-09-30T05:40:39.742Z,12.15
2022-09-30T05:41:41.441Z,12.25
2022-09-30T05:42:47.271Z,28.60
2022-09-30T05:43:49.563Z,11.02
2022-09-30T05:44:51.154Z,11.27
2022-09-30T05:45:57.100Z,10.10
2022-09-30T05:46:59.615Z,18.02
2022-09-30T05:48:01.861Z,12.02
2022-09-30T05:49:03.594Z,22.30
2022-09-30T05:50:06.256Z,33.17
2022-09-30T05:51:08.033Z,20.83
2022-09-30T05:52:09.601Z,14.40
2022-09-30T05:53:11.187Z,13.00
2022-09-30T05:54:12.848Z,10.70
2022-09-30T05:55:14.626Z,13.27
2022-09-30T05:56:16.440Z,14.63
2022-09-30T05:57:18.033Z,12.95
2022-09-30T05:58:21.160Z,16.40
2022-09-30T05:59:22.841Z,14.25
2022-09-30T06:00:24.573Z,13.65
2022-09-30T06:01:26.299Z,11.80
2022-09-30T06:02:28.021Z,14.13
2022-09-30T06:03:29.665Z,17.08
2022-09-30T06:04:31.318Z,10.52
2022-09-30T06:05:32.921Z,20.73
2022-09-30T06:06:34.554Z,13.07
2022-09-30T06:07:37.062Z,14.73
2022-09-30T06:08:40.197Z,16.63
2022-09-30T06:09:41.944Z,18.35
2022-09-30T06:10:44.728Z,11.52
2022-09-30T06:11:46.333Z,12.45
2022-09-30T06:12:48.139Z,12.93
2022-09-30T06:13:49.907Z,31.88
2022-09-30T06:14:51.496Z,20.48
2022-09-30T06:16:00.628Z,15.55
2022-09-30T06:17:02.274Z,19.55
2022-09-30T06:18:04.239Z,12.82
2022-09-30T06:19:06.766Z,13.10
2022-09-30T06:20:10.289Z,20.08
2022-09-30T06:21:14.195Z,14.18
2022-09-30T06:22:16.827Z,13.25
2022-09-30T06:23:18.500Z,20.80
2022-09-30T06:24:20.156Z,15.57
2022-09-30T06:25:22.276Z,15.40
2022-09-30T06:26:24.098Z,14.20
2022-09-30T06:27:25.701Z,14.70
2022-09-30T06:28:27.579Z,10.07
2022-09-30T06:29:29.199Z,21.73
2022-09-30T06:30:35.067Z,11.27
2022-09-30T06:31:37.253Z,48.45
2022-09-30T06:32:39.159Z,16.13
2022-09-30T06:33:42.178Z,21.70
2022-09-30T06:34:44.008Z,29.50
2022-09-30T06:35:47.382Z,20.40
2022-09-30T06:36:48.969Z,10.02
2022-09-30T06:37:53.918Z,14.68
2022-09-30T06:38:55.500Z,15.18
2022-09-30T06:39:57.126Z,12.07
2022-09-30T06:40:59.946Z,42.63
2022-09-30T06:42:01.596Z,15.80
2022-09-30T06:43:04.571Z,14.00
2022-09-30T06:44:08.126Z,19.52
2022-09-30T06:45:19.204Z,31.23
2022-09-30T06:46:31.144Z,18.02
2022-09-30T06:47:33.330Z,10.85
2022-09-30T06:48:38.677Z,11.75
2022-09-30T06:49:49.123Z,12.07
2022-09-30T06:51:01.533Z,14.18
2022-09-30T06:52:03.982Z,13.63
2022-09-30T06:53:07.654Z,26.17
2022-09-30T06:54:09.599Z,9.23
2022-09-30T06:55:11.170Z,9.55
2022-09-30T06:56:12.794Z,29.73
2022-09-30T06:57:14.411Z,23.70
2022-09-30T06:58:16.631Z,11.48
2022-09-30T06:59:18.352Z,15.10
2022-09-30T07:00:20.323Z,8.55
2022-09-30T07:01:22.047Z,18.85
2022-09-30T07:02:23.805Z,8.25
2022-09-30T07:03:29.250Z,8.48
2022-09-30T07:04:30.997Z,16.65
2022-09-30T07:05:32.699Z,8.95
2022-09-30T07:06:34.404Z,10.30
2022-09-30T07:07:36.794Z,9.15
2022-09-30T07:08:38.890Z,12.13
2022-09-30T07:09:40.604Z,15.38
2022-09-30T07:10:42.198Z,9.95
2022-09-30T07:11:44.377Z,8.80
2022-09-30T07:12:52.796Z,8.27
2022-09-30T07:13:55.417Z,9.55
2022-09-30T07:14:57.149Z,7.45
2022-09-30T07:15:58.842Z,12.23
2022-09-30T07:17:03.642Z,8.32
2022-09-30T07:18:05.656Z,8.00
2022-09-30T07:19:10.075Z,9.45
2022-09-30T07:20:11.723Z,8.63
2022-09-30T07:21:18.346Z,8.13
2022-09-30T07:22:34.422Z,18.08
2022-09-30T07:23:36.138Z,8.85
2022-09-30T07:24:37.729Z,10.57
2022-09-30T07:25:39.492Z,10.85
2022-09-30T07:26:41.146Z,7.97
2022-09-30T07:27:42.842Z,9.55
2022-09-30T07:28:45.105Z,8.25
2022-09-30T07:31:31.795Z,11.98
2022-09-30T07:32:33.789Z,8.80
2022-09-30T07:33:35.691Z,10.05
2022-09-30T07:34:37.865Z,9.30
2022-09-30T07:35:39.487Z,8.88
2022-09-30T07:36:41.725Z,11.48
2022-09-30T07:37:43.674Z,9.23
2022-09-30T07:38:49.797Z,9.90
2022-09-30T07:39:51.591Z,11.43
2022-09-30T07:41:26.977Z,11.85
2022-09-30T07:42:29.511Z,11.57
2022-09-30T07:43:40.812Z,10.30
2022-09-30T07:44:44.190Z,10.18
2022-09-30T07:45:46.041Z,10.00
2022-09-30T07:46:48.013Z,12.43
2022-09-30T07:47:53.649Z,9.48
2022-09-30T07:49:00.462Z,8.82
2022-09-30T07:50:04.004Z,14.93
2022-09-30T07:51:05.772Z,13.35
2022-09-30T07:52:08.729Z,14.57
2022-09-30T07:53:10.335Z,9.82
2022-09-30T07:54:16.115Z,10.93
2022-09-30T07:55:17.775Z,10.23
2022-09-30T07:56:20.752Z,12.48
2022-09-30T07:57:22.328Z,12.85
2022-09-30T07:58:24.227Z,10.40
2022-09-30T07:59:27.521Z,15.27
2022-09-30T08:00:44.363Z,12.52
2022-09-30T08:01:46.983Z,9.73
2022-09-30T08:02:48.575Z,10.70
2022-09-30T08:03:53.935Z,18.20
2022-09-30T08:04:55.521Z,14.15
2022-09-30T08:06:02.800Z,13.90
2022-09-30T08:07:05.367Z,11.48
2022-09-30T08:08:07.004Z,12.38
2022-09-30T08:09:09.361Z,11.10
2022-09-30T08:10:11.148Z,10.70
2022-09-30T08:11:14.621Z,11.32
2022-09-30T08:12:16.280Z,13.88
2022-09-30T08:13:19.963Z,12.02
2022-09-30T08:14:26.715Z,12.70
2022-09-30T08:15:28.628Z,12.27
2022-09-30T08:16:30.650Z,12.45
2022-09-30T08:17:32.284Z,12.45
2022-09-30T08:18:33.971Z,13.48
2022-09-30T08:19:36.448Z,13.82
2022-09-30T08:20:38.061Z,13.48
2022-09-30T08:21:39.712Z,16.70
2022-09-30T08:22:41.312Z,14.13
2022-09-30T08:23:42.924Z,13.90
2022-09-30T08:24:44.564Z,13.93
2022-09-30T08:25:46.265Z,15.32
2022-09-30T08:26:47.973Z,17.80
2022-09-30T08:27:49.753Z,13.43
2022-09-30T08:28:51.457Z,14.02
2022-09-30T08:29:56.595Z,15.30
2022-09-30T08:31:07.137Z,13.65
2022-09-30T08:32:08.814Z,12.77
2022-09-30T08:33:10.524Z,13.07
2022-09-30T08:34:12.105Z,13.27
2022-09-30T08:35:13.763Z,13.48
2022-09-30T08:36:18.178Z,11.98
2022-09-30T08:37:19.880Z,13.68
2022-09-30T08:38:21.642Z,12.40
2022-09-30T08:39:23.258Z,14.90
2022-09-30T08:40:28.295Z,13.48
2022-09-30T08:41:55.716Z,21.92
2022-09-30T08:43:39.357Z,12.90
2022-09-30T08:44:47.589Z,11.65
2022-09-30T08:45:55.317Z,12.20
2022-09-30T08:47:03.212Z,11.63
2022-09-30T08:48:33.849Z,11.20
2022-09-30T08:49:47.148Z,12.25
2022-09-30T08:51:06.840Z,11.50
2022-09-30T08:52:24.530Z,10.35
2022-09-30T08:53:42.226Z,11.50
2022-09-30T08:54:47.961Z,9.85
2022-09-30T08:55:50.208Z,13.18
2022-09-30T08:56:52.325Z,8.55
2022-09-30T08:57:56.395Z,8.60
2022-09-30T08:59:26.790Z,8.13
2022-09-30T09:00:28.579Z,8.30
2022-09-30T09:01:44.341Z,8.27
2022-09-30T09:02:51.613Z,7.60
2022-09-30T09:03:53.868Z,8.67
2022-09-30T09:05:01.790Z,7.30
2022-09-30T09:06:03.342Z,10.23
2022-09-30T09:07:09.208Z,6.50
2022-09-30T09:08:39.947Z,7.50
2022-09-30T09:10:05.402Z,8.60
2022-09-30T09:11:30.928Z,7.63
2022-09-30T09:12:46.577Z,10.93
2022-09-30T09:14:00.806Z,7.83
2022-09-30T09:15:37.167Z,6.60
2022-09-30T09:17:15.996Z,7.53
2022-09-30T09:18:29.189Z,6.83
2022-09-30T09:19:41.812Z,6.87
2022-09-30T09:20:58.449Z,8.20
2022-09-30T09:22:02.575Z,7.50
2022-09-30T09:23:08.909Z,6.03
2022-09-30T09:24:18.134Z,22.17
2022-09-30T09:25:22.528Z,5.97
2022-09-30T09:26:26.002Z,6.57
2022-09-30T09:27:36.906Z,7.03
2022-09-30T09:29:10.953Z,9.40
2022-09-30T09:30:17.207Z,9.00
2022-09-30T09:31:20.112Z,8.93
2022-09-30T09:32:21.805Z,6.07
2022-09-30T09:33:29.674Z,12.00
2022-09-30T09:34:31.702Z,6.07
2022-09-30T09:36:03.627Z,5.87
2022-09-30T09:37:50.134Z,5.53
2022-09-30T09:39:08.980Z,6.33
2022-09-30T09:40:24.512Z,7.00
2022-09-30T09:41:37.873Z,6.70
2022-09-30T09:42:57.121Z,6.77
2022-09-30T09:44:13.158Z,8.27
2022-09-30T09:45:36.973Z,7.40
2022-09-30T09:46:48.899Z,7.00
2022-09-30T09:47:51.904Z,7.33
2022-09-30T09:49:50.144Z,5.77
2022-09-30T09:51:03.266Z,6.13
2022-09-30T09:52:13.669Z,6.77
2022-09-30T09:53:33.827Z,6.37
2022-09-30T09:54:41.289Z,6.40
2022-09-30T09:55:42.961Z,6.17
2022-09-30T09:56:44.909Z,6.23
2022-09-30T09:57:47.150Z,7.90
2022-09-30T09:59:08.935Z,5.60
2022-09-30T10:00:39.599Z,6.50
2022-09-30T10:01:45.243Z,5.33
2022-09-30T10:02:58.541Z,5.90
2022-09-30T10:04:15.770Z,5.47
2022-09-30T10:05:26.597Z,4.93
2022-09-30T10:06:52.185Z,5.57
2022-09-30T10:08:10.054Z,9.00
2022-09-30T10:09:33.127Z,5.03
2022-09-30T10:10:50.416Z,6.47
2022-09-30T10:12:07.072Z,4.73
2022-09-30T10:13:20.354Z,6.70
2022-09-30T10:14:22.281Z,6.50
2022-09-30T10:15:26.309Z,4.93
2022-09-30T10:16:38.011Z,5.00
2022-09-30T10:17:40.078Z,9.10
2022-09-30T10:18:42.021Z,5.80
2022-09-30T10:19:57.751Z,5.03
2022-09-30T10:21:08.651Z,5.60
2022-09-30T10:22:11.745Z,6.40
2022-09-30T10:23:28.748Z,9.00
2022-09-30T10:24:31.442Z,4.60
2022-09-30T10:25:33.146Z,5.53
2022-09-30T10:26:47.768Z,5.80
2022-09-30T10:27:50.778Z,4.37
2022-09-30T10:29:05.965Z,5.67
2022-09-30T10:30:08.101Z,3.93
2022-09-30T10:31:34.545Z,4.40
2022-09-30T10:32:36.475Z,4.67
2022-09-30T10:33:47.093Z,5.67
2022-09-30T10:34:56.488Z,4.43
2022-09-30T10:36:08.629Z,4.63
2022-09-30T10:37:22.432Z,5.33
2022-09-30T10:38:29.213Z,10.20
2022-09-30T10:39:33.680Z,6.83
2022-09-30T10:40:35.631Z,12.20
2022-09-30T10:41:38.656Z,5.57
2022-09-30T10:42:41.888Z,5.20
2022-09-30T10:43:49.476Z,6.40
2022-09-30T10:45:02.041Z,6.07
2022-09-30T10:46:25.369Z,7.83
2022-09-30T10:47:26.973Z,5.37
2022-09-30T10:48:33.028Z,6.60
2022-09-30T10:49:49.347Z,5.33
2022-09-30T10:50:53.889Z,7.80
2022-09-30T10:51:57.151Z,6.03
2022-09-30T10:53:00.807Z,6.67
2022-09-30T10:54:04.281Z,9.73
2022-09-30T10:55:29.353Z,5.83
2022-09-30T10:56:44.328Z,5.40
2022-09-30T10:57:47.668Z,13.13
2022-09-30T11:00:14.929Z,5.30
2022-09-30T11:01:27.693Z,6.20
2022-09-30T11:02:29.497Z,6.67
2022-09-30T11:03:38.495Z,5.70
2022-09-30T11:04:48.197Z,5.70
2022-09-30T11:05:50.441Z,5.23
2022-09-30T11:06:58.965Z,7.30
2022-09-30T11:08:19.739Z,5.27
2022-09-30T11:09:33.362Z,5.10
2022-09-30T11:10:57.298Z,4.90
2022-09-30T11:12:10.993Z,8.50
2022-09-30T11:13:24.943Z,15.33
2022-09-30T11:14:55.430Z,5.07
2022-09-30T11:16:09.257Z,5.67
2022-09-30T11:17:37.283Z,5.60
2022-09-30T11:18:49.970Z,4.63
2022-09-30T11:20:09.170Z,5.93
2022-09-30T11:21:19.892Z,4.60
2022-09-30T11:22:58.192Z,4.10
2022-09-30T11:24:15.248Z,11.80
2022-09-30T11:25:24.849Z,5.53
2022-09-30T11:26:40.703Z,5.20
2022-09-30T11:27:54.349Z,7.63
2022-09-30T11:29:34.213Z,4.90
2022-09-30T11:30:44.874Z,5.07
2022-09-30T11:32:27.444Z,4.87
2022-09-30T11:33:45.760Z,7.63
2022-09-30T11:35:24.912Z,4.40
2022-09-30T11:37:00.869Z,5.50
2022-09-30T11:38:39.792Z,12.83
2022-09-30T11:40:15.212Z,5.43
2022-09-30T11:41:38.563Z,4.40
2022-09-30T11:42:46.301Z,5.37
2022-09-30T11:43:53.906Z,7.17
2022-09-30T11:45:25.387Z,5.30
2022-09-30T11:46:30.258Z,4.67
2022-09-30T11:47:50.910Z,5.17
2022-09-30T11:49:04.586Z,5.77
2022-09-30T11:50:30.467Z,4.53
2022-09-30T11:51:45.636Z,4.10
2022-09-30T11:53:13.918Z,4.43
2022-09-30T11:54:30.792Z,5.17
2022-09-30T11:55:41.250Z,3.40
2022-09-30T11:56:57.800Z,4.63
2022-09-30T11:58:40.380Z,4.30
2022-09-30T12:00:01.239Z,3.00
2022-09-30T12:01:21.699Z,6.63
2022-09-30T12:02:38.257Z,2.10
2022-09-30T12:03:45.514Z,3.90
2022-09-30T12:04:48.687Z,2.00
2022-09-30T12:05:59.059Z,4.23
2022-09-30T12:07:12.288Z,2.90
2022-09-30T12:08:36.005Z,2.17
2022-09-30T12:09:44.669Z,2.20
2022-09-30T12:10:54.062Z,3.37
2022-09-30T12:12:16.811Z,3.37
2022-09-30T12:13:26.740Z,2.23
2022-09-30T12:14:34.544Z,3.43
2022-09-30T12:15:37.308Z,2.10
2022-09-30T12:16:39.884Z,3.03
2022-09-30T12:17:46.401Z,4.00
2022-09-30T12:18:57.892Z,1.37
2022-09-30T12:20:16.782Z,1.67
2022-09-30T12:21:26.411Z,2.47
2022-09-30T12:22:33.252Z,2.10
2022-09-30T12:23:49.183Z,2.50
2022-09-30T12:24:50.835Z,2.20
2022-09-30T12:25:58.539Z,1.70
2022-09-30T12:27:01.933Z,2.73
2022-09-30T12:28:29.124Z,2.50
2022-09-30T12:30:04.254Z,5.47
2022-09-30T12:31:43.445Z,1.50
2022-09-30T12:32:46.326Z,1.50
2022-09-30T12:34:19.528Z,3.43
2022-09-30T12:35:36.473Z,3.20
2022-09-30T12:36:59.576Z,2.93
2022-09-30T12:38:19.451Z,1.90
2022-09-30T12:39:35.352Z,1.50
2022-09-30T12:40:52.363Z,2.80
2022-09-30T12:42:13.568Z,4.07
2022-09-30T12:43:17.861Z,1.73
2022-09-30T12:44:41.026Z,1.50
2022-09-30T12:46:09.162Z,1.63
2022-09-30T12:47:49.543Z,3.80
2022-09-30T12:48:59.162Z,2.33
2022-09-30T12:50:07.424Z,2.83
2022-09-30T12:51:10.029Z,4.40
2022-09-30T12:52:15.908Z,1.63
2022-09-30T12:53:18.700Z,6.23
2022-09-30T12:54:37.488Z,10.93
2022-09-30T12:55:41.843Z,3.03
2022-09-30T12:56:46.944Z,7.40
2022-09-30T12:57:49.777Z,1.43
2022-09-30T12:58:52.272Z,2.80
2022-09-30T13:00:02.479Z,2.27
2022-09-30T13:01:15.045Z,2.80
2022-09-30T13:03:03.256Z,3.90
2022-09-30T13:04:04.803Z,2.23
2022-09-30T13:05:31.014Z,2.23
2022-09-30T13:06:47.542Z,1.47
2022-09-30T13:08:04.581Z,2.60
2022-09-30T13:09:11.308Z,2.53
2022-09-30T13:10:28.256Z,2.20
2022-09-30T13:11:48.303Z,2.30
2022-09-30T13:13:19.149Z,2.97
2022-09-30T13:14:39.403Z,5.13
2022-09-30T13:15:45.541Z,3.30
2022-09-30T13:17:02.259Z,3.57
2022-09-30T13:18:26.907Z,2.37
2022-09-30T13:19:40.901Z,1.40
2022-09-30T13:20:56.306Z,3.13
2022-09-30T13:22:19.825Z,3.10
2022-09-30T13:23:39.134Z,2.57
2022-09-30T13:25:00.425Z,2.23
2022-09-30T13:26:02.989Z,1.83
2022-09-30T13:27:13.358Z,1.33
2022-09-30T13:28:15.037Z,0.97
2022-09-30T13:29:16.710Z,1.53
2022-09-30T13:30:18.375Z,2.20
2022-09-30T13:31:25.364Z,1.67
2022-09-30T13:32:37.283Z,1.37
2022-09-30T13:33:44.596Z,1.27
2022-09-30T13:34:55.453Z,2.90
2022-09-30T13:36:07.727Z,1.60
2022-09-30T13:37:34.659Z,2.97
2022-09-30T13:38:40.574Z,1.40
2022-09-30T13:39:53.757Z,1.27
2022-09-30T13:41:02.406Z,1.10
2022-09-30T13:42:07.522Z,1.10
2022-09-30T13:43:22.074Z,1.33
2022-09-30T13:45:02.350Z,1.73
2022-09-30T13:46:30.208Z,2.87
2022-09-30T13:47:39.144Z,1.93
2022-09-30T13:48:48.031Z,1.40
2022-09-30T13:50:02.190Z,2.70
2022-09-30T13:51:14.793Z,1.47
2022-09-30T13:52:28.066Z,2.57
2022-09-30T13:53:40.264Z,1.30
2022-09-30T13:54:47.474Z,1.77
2022-09-30T13:55:53.700Z,2.07
2022-09-30T13:56:56.161Z,1.37
2022-09-30T13:58:23.511Z,2.73
2022-09-30T13:59:55.339Z,1.70
2022-09-30T14:01:18.948Z,4.67
2022-09-30T14:02:42.661Z,1.10
2022-09-30T14:03:56.647Z,4.40
2022-09-30T14:05:42.975Z,1.90
2022-09-30T14:07:10.374Z,3.47
2022-09-30T14:08:49.760Z,2.30
2022-09-30T14:10:14.131Z,2.80
2022-09-30T14:11:23.827Z,3.67
2022-09-30T14:12:46.192Z,1.20
2022-09-30T14:14:22.630Z,2.17
2022-09-30T14:15:45.167Z,1.77
2022-09-30T14:17:05.972Z,1.50
2022-09-30T14:18:23.257Z,2.47
2022-09-30T14:20:01.033Z,2.37
2022-09-30T14:21:28.141Z,1.70
2022-09-30T14:22:32.961Z,1.47
2022-09-30T14:23:36.526Z,3.47
2022-09-30T14:24:40.231Z,1.53
2022-09-30T14:25:57.024Z,1.23
2022-09-30T14:27:19.463Z,1.47
2022-09-30T14:28:49.800Z,1.17
2022-09-30T14:30:11.577Z,3.93
2022-09-30T14:31:16.112Z,1.60
2022-09-30T14:32:25.965Z,1.63
2022-09-30T14:33:28.383Z,1.33
2022-09-30T14:34:30.979Z,3.10
2022-09-30T14:35:34.697Z,3.60
2022-09-30T14:36:36.422Z,4.00
2022-09-30T14:37:45.119Z,2.00
2022-09-30T14:38:53.761Z,4.80
2022-09-30T14:39:56.083Z,2.17
2022-09-30T14:41:07.856Z,2.13
2022-09-30T14:42:17.697Z,1.90
2022-09-30T14:43:38.859Z,2.43
2022-09-30T14:44:43.575Z,1.67
2022-09-30T14:45:50.888Z,5.97
2022-09-30T14:47:00.065Z,1.20
2022-09-30T14:48:08.155Z,3.60
2022-09-30T14:49:16.447Z,1.67
2022-09-30T14:50:26.281Z,2.70
2022-09-30T14:51:34.746Z,3.17
2022-09-30T14:52:45.179Z,2.40
2022-09-30T14:53:58.306Z,3.33
2022-09-30T14:54:59.911Z,3.10
2022-09-30T14:56:04.463Z,4.17
2022-09-30T14:57:16.503Z,4.13
2022-09-30T14:58:24.504Z,2.90
2022-09-30T14:59:34.663Z,3.20
2022-09-30T15:00:37.855Z,2.70
2022-09-30T15:01:40.643Z,3.13
2022-09-30T15:02:46.731Z,2.60
2022-09-30T15:04:04.340Z,1.70
2022-09-30T15:05:06.270Z,1.83
2022-09-30T15:06:19.116Z,4.07
2022-09-30T15:07:20.843Z,4.67
2022-09-30T15:08:23.396Z,8.33
2022-09-30T15:09:39.810Z,9.10
2022-09-30T15:10:50.870Z,2.97
2022-09-30T15:11:52.916Z,2.20
2022-09-30T15:12:56.166Z,2.57
2022-09-30T15:14:06.896Z,1.70
2022-09-30T15:15:34.086Z,2.03
2022-09-30T15:16:46.551Z,2.10
2022-09-30T15:17:48.307Z,3.57
2022-09-30T15:18:49.928Z,4.77
2022-09-30T15:19:51.635Z,3.93
2022-09-30T15:20:55.905Z,2.50
2022-09-30T15:22:02.568Z,3.03